createdAt,value
2018-03-29T00:00:19.646Z,62.55
2018-03-29T00:00:51.275Z,63.02
2018-03-29T00:01:22.898Z,62.89
2018-03-29T00:01:54.524Z,63.13
2018-03-29T00:02:26.155Z,63.03
2018-03-29T00:02:57.827Z,62.78
2018-03-29T00:03:29.454Z,63.10
2018-03-29T00:04:01.086Z,62.82
2018-03-29T00:04:32.710Z,63.21
2018-03-29T00:05:04.333Z,62.96
2018-03-29T00:05:35.961Z,63.81
2018-03-29T00:06:07.592Z,63.34
2018-03-29T00:06:39.218Z,63.47
2018-03-29T00:07:11.058Z,63.53
2018-03-29T00:07:42.692Z,63.03
2018-03-29T00:08:14.324Z,62.81
2018-03-29T00:08:45.954Z,62.67
2018-03-29T00:09:17.586Z,62.63
2018-03-29T00:09:49.216Z,63.12
2018-03-29T00:10:20.846Z,62.93
2018-03-29T00:10:52.470Z,63.01
2018-03-29T00:11:24.099Z,62.60
2018-03-29T00:11:55.726Z,62.69
2018-03-29T00:12:27.399Z,62.37
2018-03-29T00:12:59.063Z,62.59
2018-03-29T00:13:30.690Z,62.65
2018-03-29T00:14:02.314Z,62.33
2018-03-29T00:14:33.938Z,62.50
2018-03-29T00:15:05.567Z,62.29
2018-03-29T00:15:37.230Z,62.25
2018-03-29T00:16:08.859Z,62.30
2018-03-29T00:16:40.486Z,62.23
2018-03-29T00:17:12.114Z,62.43
2018-03-29T00:17:43.795Z,62.22
2018-03-29T00:18:15.399Z,62.07
2018-03-29T00:18:47.031Z,62.00
2018-03-29T00:19:18.705Z,62.07
2018-03-29T00:19:50.337Z,62.03
2018-03-29T00:20:21.965Z,61.84
2018-03-29T00:20:53.586Z,61.96
2018-03-29T00:21:25.254Z,61.99
2018-03-29T00:21:56.882Z,61.73
2018-03-29T00:22:28.510Z,62.44
2018-03-29T00:23:00.134Z,61.98
2018-03-29T00:23:31.758Z,61.88
2018-03-29T00:24:03.382Z,62.03
2018-03-29T00:24:35.006Z,61.95
2018-03-29T00:25:06.635Z,62.03
2018-03-29T00:25:38.258Z,62.41
2018-03-29T00:26:09.885Z,62.01
2018-03-29T00:26:41.550Z,61.87
2018-03-29T00:27:13.174Z,61.97
2018-03-29T00:27:44.810Z,62.02
2018-03-29T00:28:16.482Z,61.99
2018-03-29T00:28:48.115Z,61.93
2018-03-29T00:29:19.737Z,61.99
2018-03-29T00:29:51.366Z,61.85
2018-03-29T00:30:22.995Z,61.99
2018-03-29T00:30:54.619Z,61.80
2018-03-29T00:31:26.290Z,61.87
2018-03-29T00:31:57.926Z,61.77
2018-03-29T00:32:29.554Z,61.83
2018-03-29T00:33:01.178Z,61.77
2018-03-29T00:33:32.806Z,61.73
2018-03-29T00:34:04.434Z,61.75
2018-03-29T00:34:36.068Z,61.56
2018-03-29T00:35:07.695Z,61.52
2018-03-29T00:35:39.318Z,61.69
2018-03-29T00:36:10.990Z,61.69
2018-03-29T00:36:42.649Z,61.81
2018-03-29T00:37:14.288Z,61.67
2018-03-29T00:37:45.958Z,61.49
2018-03-29T00:38:17.590Z,61.60
2018-03-29T00:38:49.218Z,61.60
2018-03-29T00:39:20.841Z,61.43
2018-03-29T00:39:52.467Z,61.43
2018-03-29T00:40:24.094Z,61.70
2018-03-29T00:40:55.719Z,61.53
2018-03-29T00:41:27.350Z,61.42
2018-03-29T00:41:59.031Z,61.35
2018-03-29T00:42:30.659Z,61.45
2018-03-29T00:43:02.281Z,61.53
2018-03-29T00:43:33.915Z,61.41
2018-03-29T00:44:05.547Z,61.40
2018-03-29T00:44:37.171Z,61.35
2018-03-29T00:45:08.794Z,61.22
2018-03-29T00:45:40.418Z,61.31
2018-03-29T00:46:12.042Z,61.35
2018-03-29T00:46:43.666Z,61.36
2018-03-29T00:47:15.338Z,61.26
2018-03-29T00:47:47.014Z,61.30
2018-03-29T00:48:18.641Z,61.27
2018-03-29T00:48:50.265Z,61.12
2018-03-29T00:49:21.890Z,61.23
2018-03-29T00:49:53.514Z,61.07
2018-03-29T00:50:25.142Z,61.17
2018-03-29T00:50:56.765Z,61.34
2018-03-29T00:51:28.386Z,61.15
2018-03-29T00:52:00.017Z,61.10
2018-03-29T00:52:31.646Z,61.17
2018-03-29T00:53:03.318Z,61.18
2018-03-29T00:53:34.958Z,61.10
2018-03-29T00:54:06.595Z,61.05
2018-03-29T00:54:38.222Z,61.15
2018-03-29T00:55:09.854Z,61.10
2018-03-29T00:55:41.482Z,61.14
2018-03-29T00:56:13.111Z,61.05
2018-03-29T00:56:44.774Z,60.96
2018-03-29T00:57:16.405Z,61.03
2018-03-29T00:57:48.026Z,61.07
2018-03-29T00:58:19.660Z,61.03
2018-03-29T00:58:51.302Z,61.07
2018-03-29T00:59:22.932Z,61.17
2018-03-29T00:59:54.553Z,61.15
2018-03-29T01:00:26.261Z,61.21
2018-03-29T01:00:57.889Z,61.04
2018-03-29T01:01:29.563Z,61.28
2018-03-29T01:02:01.195Z,61.46
2018-03-29T01:02:32.822Z,61.97
2018-03-29T01:03:04.450Z,61.20
2018-03-29T01:03:36.073Z,60.97
2018-03-29T01:04:07.698Z,61.04
2018-03-29T01:04:39.334Z,61.26
2018-03-29T01:05:10.958Z,61.20
2018-03-29T01:05:42.577Z,61.47
2018-03-29T01:06:14.207Z,60.89
2018-03-29T01:06:45.890Z,60.99
2018-03-29T01:07:17.523Z,60.91
2018-03-29T01:07:49.156Z,60.89
2018-03-29T01:08:20.777Z,60.91
2018-03-29T01:08:52.406Z,61.01
2018-03-29T01:09:24.030Z,60.91
2018-03-29T01:09:55.663Z,60.97
2018-03-29T01:10:27.290Z,60.95
2018-03-29T01:10:58.922Z,60.83
2018-03-29T01:11:30.551Z,60.77
2018-03-29T01:12:02.243Z,60.91
2018-03-29T01:12:33.870Z,60.93
2018-03-29T01:13:05.498Z,60.92
2018-03-29T01:13:37.121Z,60.95
2018-03-29T01:14:08.750Z,60.96
2018-03-29T01:14:40.374Z,60.76
2018-03-29T01:15:12.002Z,60.97
2018-03-29T01:15:43.626Z,61.00
2018-03-29T01:16:15.254Z,60.93
2018-03-29T01:16:46.878Z,61.00
2018-03-29T01:17:18.554Z,60.77
2018-03-29T01:17:50.183Z,60.86
2018-03-29T01:18:21.806Z,60.92
2018-03-29T01:18:53.456Z,60.85
2018-03-29T01:19:25.085Z,60.86
2018-03-29T01:19:56.718Z,60.85
2018-03-29T01:20:28.343Z,60.80
2018-03-29T01:20:59.970Z,60.74
2018-03-29T01:21:31.593Z,60.76
2018-03-29T01:22:03.214Z,60.74
2018-03-29T01:22:34.886Z,60.87
2018-03-29T01:23:06.509Z,60.99
2018-03-29T01:23:38.133Z,60.81
2018-03-29T01:24:09.758Z,60.92
2018-03-29T01:24:41.378Z,60.89
2018-03-29T01:25:13.010Z,60.89
2018-03-29T01:25:44.695Z,60.80
2018-03-29T01:26:16.317Z,60.84
2018-03-29T01:26:47.938Z,61.02
2018-03-29T01:27:19.566Z,60.95
2018-03-29T01:27:51.191Z,60.97
2018-03-29T01:28:22.824Z,60.94
2018-03-29T01:28:54.451Z,60.88
2018-03-29T01:29:26.077Z,61.00
2018-03-29T01:29:57.715Z,61.07
2018-03-29T01:30:29.342Z,61.14
2018-03-29T01:31:01.010Z,61.06
2018-03-29T01:31:32.683Z,61.13
2018-03-29T01:32:04.354Z,61.08
2018-03-29T01:32:35.978Z,61.28
2018-03-29T01:33:07.607Z,61.21
2018-03-29T01:33:39.234Z,60.94
2018-03-29T01:34:10.866Z,61.16
2018-03-29T01:34:42.546Z,60.95
2018-03-29T01:35:14.174Z,60.99
2018-03-29T01:35:45.806Z,61.14
2018-03-29T01:36:17.434Z,61.14
2018-03-29T01:36:49.111Z,61.08
2018-03-29T01:37:20.739Z,61.22
2018-03-29T01:37:52.366Z,61.28
2018-03-29T01:38:23.994Z,61.10
2018-03-29T01:38:55.622Z,61.19
2018-03-29T01:39:27.254Z,61.29
2018-03-29T01:39:58.878Z,61.41
2018-03-29T01:40:30.497Z,61.09
2018-03-29T01:41:02.122Z,61.15
2018-03-29T01:41:33.746Z,61.37
2018-03-29T01:42:05.378Z,61.47
2018-03-29T01:42:37.002Z,61.33
2018-03-29T01:43:08.625Z,61.42
2018-03-29T01:43:40.253Z,61.49
2018-03-29T01:44:11.882Z,61.36
2018-03-29T01:44:43.506Z,61.49
2018-03-29T01:45:15.171Z,61.55
2018-03-29T01:45:46.834Z,61.91
2018-03-29T01:46:18.457Z,61.61
2018-03-29T01:46:50.122Z,61.46
2018-03-29T01:47:21.754Z,61.51
2018-03-29T01:47:53.386Z,61.46
2018-03-29T01:48:25.019Z,61.72
2018-03-29T01:48:56.646Z,61.77
2018-03-29T01:49:28.279Z,61.52
2018-03-29T01:49:59.906Z,61.43
2018-03-29T01:50:31.533Z,61.71
2018-03-29T01:51:03.159Z,61.88
2018-03-29T01:51:34.833Z,61.86
2018-03-29T01:52:06.458Z,61.75
2018-03-29T01:52:38.086Z,61.64
2018-03-29T01:53:09.710Z,61.66
2018-03-29T01:53:41.334Z,61.70
2018-03-29T01:54:12.970Z,61.67
2018-03-29T01:54:44.594Z,61.83
2018-03-29T01:55:16.222Z,61.86
2018-03-29T01:55:47.850Z,61.87
2018-03-29T01:56:19.478Z,61.74
2018-03-29T01:56:51.154Z,61.77
2018-03-29T01:57:22.782Z,61.75
2018-03-29T01:57:54.406Z,61.68
2018-03-29T01:58:26.029Z,61.79
2018-03-29T01:58:57.654Z,61.81
2018-03-29T01:59:29.282Z,61.84
2018-03-29T02:00:00.905Z,61.72
2018-03-29T02:00:32.533Z,61.84
2018-03-29T02:01:04.159Z,61.81
2018-03-29T02:01:35.792Z,61.73
2018-03-29T02:02:07.482Z,61.76
2018-03-29T02:02:39.110Z,61.72
2018-03-29T02:03:10.734Z,61.59
2018-03-29T02:03:42.358Z,61.77
2018-03-29T02:04:13.988Z,61.66
2018-03-29T02:04:45.618Z,61.70
2018-03-29T02:05:17.247Z,61.86
2018-03-29T02:05:48.878Z,61.81
2018-03-29T02:06:20.507Z,61.69
2018-03-29T02:06:52.188Z,61.71
2018-03-29T02:07:23.818Z,62.03
2018-03-29T02:07:55.442Z,61.86
2018-03-29T02:08:27.074Z,62.06
2018-03-29T02:08:58.706Z,62.18
2018-03-29T02:09:30.329Z,61.92
2018-03-29T02:10:01.963Z,61.96
2018-03-29T02:10:33.590Z,62.22
2018-03-29T02:11:05.210Z,62.14
2018-03-29T02:11:36.834Z,61.90
2018-03-29T02:12:08.453Z,62.25
2018-03-29T02:12:40.086Z,62.07
2018-03-29T02:13:11.715Z,61.96
2018-03-29T02:13:43.352Z,62.06
2018-03-29T02:14:14.981Z,61.84
2018-03-29T02:14:46.611Z,61.91
2018-03-29T02:15:18.237Z,62.01
2018-03-29T02:15:49.862Z,62.00
2018-03-29T02:16:21.490Z,62.17
2018-03-29T02:16:53.170Z,62.11
2018-03-29T02:17:24.798Z,62.08
2018-03-29T02:17:56.422Z,62.09
2018-03-29T02:18:28.062Z,61.92
2018-03-29T02:18:59.695Z,61.90
2018-03-29T02:19:31.319Z,61.79
2018-03-29T02:20:02.943Z,61.95
2018-03-29T02:20:34.574Z,61.84
2018-03-29T02:21:06.204Z,61.88
2018-03-29T02:21:37.826Z,61.97
2018-03-29T02:22:09.453Z,61.89
2018-03-29T02:22:41.083Z,61.77
2018-03-29T02:23:12.710Z,61.93
2018-03-29T02:23:44.333Z,61.81
2018-03-29T02:24:15.967Z,62.03
2018-03-29T02:24:47.602Z,61.80
2018-03-29T02:25:19.226Z,61.86
2018-03-29T02:25:50.859Z,61.71
2018-03-29T02:26:22.486Z,61.84
2018-03-29T02:26:54.110Z,61.75
2018-03-29T02:27:25.778Z,61.56
2018-03-29T02:27:57.405Z,61.61
2018-03-29T02:28:29.038Z,61.79
2018-03-29T02:29:00.661Z,61.58
2018-03-29T02:29:32.282Z,61.60
2018-03-29T02:30:03.923Z,61.67
2018-03-29T02:30:35.599Z,61.52
2018-03-29T02:31:07.227Z,61.58
2018-03-29T02:31:38.864Z,61.44
2018-03-29T02:32:10.502Z,61.49
2018-03-29T02:32:42.132Z,61.46
2018-03-29T02:33:13.755Z,61.46
2018-03-29T02:33:45.403Z,61.48
2018-03-29T02:34:17.042Z,61.39
2018-03-29T02:34:48.715Z,61.36
2018-03-29T02:35:20.342Z,61.37
2018-03-29T02:35:51.965Z,61.44
2018-03-29T02:36:23.593Z,61.33
2018-03-29T02:36:55.214Z,61.23
2018-03-29T02:37:26.843Z,61.34
2018-03-29T02:37:58.479Z,61.53
2018-03-29T02:38:30.115Z,61.49
2018-03-29T02:39:01.784Z,61.92
2018-03-29T02:39:33.422Z,61.77
2018-03-29T02:40:05.095Z,61.85
2018-03-29T02:40:36.722Z,61.81
2018-03-29T02:41:08.343Z,62.42
2018-03-29T02:41:39.989Z,61.90
2018-03-29T02:42:11.619Z,61.93
2018-03-29T02:42:43.248Z,61.93
2018-03-29T02:43:14.878Z,62.01
2018-03-29T02:43:46.538Z,61.86
2018-03-29T02:44:18.163Z,61.88
2018-03-29T02:44:49.795Z,62.00
2018-03-29T02:45:21.466Z,62.10
2018-03-29T02:45:53.130Z,61.84
2018-03-29T02:46:24.762Z,61.58
2018-03-29T02:46:56.386Z,61.41
2018-03-29T02:47:28.019Z,61.37
2018-03-29T02:47:59.647Z,61.19
2018-03-29T02:48:31.275Z,61.17
2018-03-29T02:49:02.906Z,61.07
2018-03-29T02:49:34.538Z,60.86
2018-03-29T02:50:06.165Z,60.78
2018-03-29T02:50:37.803Z,60.75
2018-03-29T02:51:09.477Z,60.61
2018-03-29T02:51:41.107Z,60.60
2018-03-29T02:52:12.730Z,60.50
2018-03-29T02:52:44.358Z,60.46
2018-03-29T02:53:15.986Z,60.33
2018-03-29T02:53:47.616Z,60.27
2018-03-29T02:54:19.239Z,60.20
2018-03-29T02:54:50.876Z,60.14
2018-03-29T02:55:22.507Z,60.11
2018-03-29T02:55:54.138Z,60.11
2018-03-29T02:56:25.815Z,59.90
2018-03-29T02:56:57.446Z,59.51
2018-03-29T02:57:29.075Z,59.33
2018-03-29T02:58:00.702Z,59.29
2018-03-29T02:58:32.330Z,59.33
2018-03-29T02:59:03.954Z,59.45
2018-03-29T02:59:35.583Z,59.52
2018-03-29T03:00:07.223Z,59.55
2018-03-29T03:00:38.850Z,59.55
2018-03-29T03:01:10.488Z,59.53
2018-03-29T03:01:42.158Z,59.26
2018-03-29T03:02:13.799Z,59.18
2018-03-29T03:02:45.422Z,58.90
2018-03-29T03:03:17.095Z,59.46
2018-03-29T03:03:48.722Z,59.13
2018-03-29T03:04:20.347Z,59.50
2018-03-29T03:04:51.971Z,59.10
2018-03-29T03:05:23.595Z,58.88
2018-03-29T03:05:55.226Z,58.96
2018-03-29T03:06:26.849Z,59.02
2018-03-29T03:06:58.522Z,59.02
2018-03-29T03:07:30.146Z,58.88
2018-03-29T03:08:01.770Z,58.92
2018-03-29T03:08:33.393Z,58.80
2018-03-29T03:09:05.018Z,58.88
2018-03-29T03:09:36.691Z,58.87
2018-03-29T03:10:08.442Z,58.87
2018-03-29T03:10:40.075Z,58.91
2018-03-29T03:11:11.706Z,58.99
2018-03-29T03:11:43.330Z,58.97
2018-03-29T03:12:14.959Z,59.00
2018-03-29T03:12:46.586Z,58.96
2018-03-29T03:13:18.257Z,58.92
2018-03-29T03:13:49.882Z,58.92
2018-03-29T03:14:21.511Z,58.92
2018-03-29T03:14:53.134Z,58.88
2018-03-29T03:15:24.766Z,58.84
2018-03-29T03:15:56.393Z,58.84
2018-03-29T03:16:28.018Z,58.87
2018-03-29T03:16:59.647Z,58.89
2018-03-29T03:17:31.274Z,58.86
2018-03-29T03:18:02.907Z,58.79
2018-03-29T03:18:34.578Z,58.78
2018-03-29T03:19:06.210Z,58.74
2018-03-29T03:19:37.837Z,58.72
2018-03-29T03:20:09.472Z,58.74
2018-03-29T03:20:41.106Z,58.74
2018-03-29T03:21:12.734Z,58.71
2018-03-29T03:21:44.358Z,58.72
2018-03-29T03:22:15.986Z,58.77
2018-03-29T03:22:47.618Z,58.77
2018-03-29T03:23:19.242Z,58.76
2018-03-29T03:23:50.870Z,58.79
2018-03-29T03:24:22.502Z,58.78
2018-03-29T03:24:54.131Z,58.77
2018-03-29T03:25:25.766Z,58.76
2018-03-29T03:25:57.403Z,58.79
2018-03-29T03:26:29.069Z,58.78
2018-03-29T03:27:00.698Z,58.80
2018-03-29T03:27:32.322Z,58.79
2018-03-29T03:28:03.951Z,58.81
2018-03-29T03:28:35.582Z,58.77
2018-03-29T03:29:07.207Z,58.77
2018-03-29T03:29:38.830Z,58.78
2018-03-29T03:30:10.463Z,58.79
2018-03-29T03:30:42.091Z,58.82
2018-03-29T03:31:13.733Z,58.82
2018-03-29T03:31:45.420Z,58.80
2018-03-29T03:32:17.050Z,58.87
2018-03-29T03:32:48.679Z,58.88
2018-03-29T03:33:20.302Z,58.89
2018-03-29T03:33:51.921Z,58.91
2018-03-29T03:34:23.551Z,58.98
2018-03-29T03:34:55.182Z,58.90
2018-03-29T03:35:26.814Z,58.86
2018-03-29T03:35:58.447Z,58.82
2018-03-29T03:36:30.082Z,58.79
2018-03-29T03:37:01.801Z,58.77
2018-03-29T03:37:33.462Z,58.78
2018-03-29T03:38:05.058Z,58.76
2018-03-29T03:38:36.684Z,58.74
2018-03-29T03:39:08.313Z,58.75
2018-03-29T03:39:39.977Z,58.74
2018-03-29T03:40:11.606Z,58.71
2018-03-29T03:40:43.230Z,58.73
2018-03-29T03:41:14.853Z,58.71
2018-03-29T03:41:46.488Z,58.61
2018-03-29T03:42:18.114Z,58.63
2018-03-29T03:42:49.741Z,58.65
2018-03-29T03:43:21.374Z,58.59
2018-03-29T03:43:53.041Z,58.58
2018-03-29T03:44:24.667Z,58.52
2018-03-29T03:44:56.337Z,58.45
2018-03-29T03:45:27.962Z,58.46
2018-03-29T03:45:59.590Z,58.41
2018-03-29T03:46:31.214Z,58.37
2018-03-29T03:47:02.841Z,58.32
2018-03-29T03:47:34.470Z,58.31
2018-03-29T03:48:06.103Z,58.29
2018-03-29T03:48:37.726Z,58.28
2018-03-29T03:49:09.422Z,58.28
2018-03-29T03:49:41.069Z,58.24
2018-03-29T03:50:12.697Z,58.19
2018-03-29T03:50:44.322Z,58.14
2018-03-29T03:51:15.945Z,58.15
2018-03-29T03:51:47.590Z,58.14
2018-03-29T03:52:19.217Z,58.07
2018-03-29T03:52:50.883Z,58.02
2018-03-29T03:53:22.506Z,58.03
2018-03-29T03:53:54.136Z,58.00
2018-03-29T03:54:25.761Z,57.92
2018-03-29T03:54:57.391Z,57.89
2018-03-29T03:55:29.018Z,57.90
2018-03-29T03:56:00.646Z,57.84
2018-03-29T03:56:32.274Z,57.80
2018-03-29T03:57:03.901Z,57.78
2018-03-29T03:57:35.531Z,57.78
2018-03-29T03:58:07.154Z,57.78
2018-03-29T03:58:38.791Z,57.74
2018-03-29T03:59:10.422Z,57.74
2018-03-29T03:59:42.094Z,57.72
2018-03-29T04:00:13.720Z,57.71
2018-03-29T04:00:45.341Z,57.72
2018-03-29T04:01:16.975Z,57.71
2018-03-29T04:01:48.602Z,57.70
2018-03-29T04:02:20.230Z,57.70
2018-03-29T04:02:51.881Z,57.68
2018-03-29T04:03:23.506Z,57.72
2018-03-29T04:03:55.171Z,57.73
2018-03-29T04:04:26.793Z,57.72
2018-03-29T04:04:58.413Z,57.70
2018-03-29T04:05:30.121Z,57.73
2018-03-29T04:06:01.746Z,57.75
2018-03-29T04:06:33.373Z,57.74
2018-03-29T04:07:05.002Z,57.75
2018-03-29T04:07:36.638Z,57.79
2018-03-29T04:08:08.262Z,57.83
2018-03-29T04:08:39.934Z,57.80
2018-03-29T04:09:12.086Z,57.79
2018-03-29T04:09:43.715Z,57.75
2018-03-29T04:10:15.345Z,57.75
2018-03-29T04:10:46.966Z,57.77
2018-03-29T04:11:18.638Z,57.81
2018-03-29T04:11:50.258Z,57.84
2018-03-29T04:12:21.881Z,57.87
2018-03-29T04:12:53.512Z,57.92
2018-03-29T04:13:25.134Z,57.98
2018-03-29T04:13:56.762Z,58.01
2018-03-29T04:14:28.386Z,58.00
2018-03-29T04:15:00.015Z,58.06
2018-03-29T04:15:31.638Z,58.06
2018-03-29T04:16:03.307Z,58.08
2018-03-29T04:16:34.932Z,58.04
2018-03-29T04:17:06.557Z,58.03
2018-03-29T04:17:38.178Z,58.03
2018-03-29T04:18:09.811Z,58.03
2018-03-29T04:18:41.437Z,57.95
2018-03-29T04:19:13.058Z,57.94
2018-03-29T04:19:44.687Z,57.93
2018-03-29T04:20:16.319Z,57.94
2018-03-29T04:20:47.942Z,57.95
2018-03-29T04:21:19.614Z,57.86
2018-03-29T04:21:51.285Z,57.87
2018-03-29T04:22:22.902Z,57.85
2018-03-29T04:22:54.527Z,57.83
2018-03-29T04:23:26.159Z,57.86
2018-03-29T04:23:57.794Z,57.85
2018-03-29T04:24:29.430Z,57.80
2018-03-29T04:25:01.064Z,57.83
2018-03-29T04:25:32.730Z,57.84
2018-03-29T04:26:04.354Z,57.78
2018-03-29T04:26:35.978Z,57.75
2018-03-29T04:27:07.603Z,57.75
2018-03-29T04:27:39.266Z,57.66
2018-03-29T04:28:10.902Z,57.65
2018-03-29T04:28:42.526Z,57.61
2018-03-29T04:29:14.151Z,57.66
2018-03-29T04:29:45.778Z,57.61
2018-03-29T04:30:17.402Z,57.62
2018-03-29T04:30:49.075Z,57.61
2018-03-29T04:31:20.698Z,57.55
2018-03-29T04:31:52.341Z,57.56
2018-03-29T04:32:23.971Z,57.52
2018-03-29T04:32:55.645Z,57.51
2018-03-29T04:33:27.274Z,57.47
2018-03-29T04:33:58.906Z,57.47
2018-03-29T04:34:30.534Z,57.45
2018-03-29T04:35:02.158Z,57.41
2018-03-29T04:35:33.791Z,57.41
2018-03-29T04:36:05.418Z,57.41
2018-03-29T04:36:37.047Z,57.33
2018-03-29T04:37:08.674Z,57.39
2018-03-29T04:37:40.303Z,57.35
2018-03-29T04:38:11.966Z,57.33
2018-03-29T04:38:43.590Z,57.31
2018-03-29T04:39:15.218Z,57.32
2018-03-29T04:39:46.842Z,57.29
2018-03-29T04:40:18.470Z,57.28
2018-03-29T04:40:50.134Z,57.19
2018-03-29T04:41:21.763Z,57.23
2018-03-29T04:41:53.390Z,57.25
2018-03-29T04:42:25.014Z,57.27
2018-03-29T04:42:56.638Z,57.27
2018-03-29T04:43:28.271Z,57.25
2018-03-29T04:43:59.898Z,57.23
2018-03-29T04:44:31.526Z,57.18
2018-03-29T04:45:03.154Z,57.17
2018-03-29T04:45:34.818Z,57.12
2018-03-29T04:46:06.442Z,57.08
2018-03-29T04:46:38.062Z,57.06
2018-03-29T04:47:09.683Z,57.03
2018-03-29T04:47:41.317Z,56.99
2018-03-29T04:48:12.950Z,56.97
2018-03-29T04:48:44.574Z,56.95
2018-03-29T04:49:16.273Z,56.95
2018-03-29T04:49:47.898Z,56.97
2018-03-29T04:50:19.522Z,56.95
2018-03-29T04:50:51.154Z,56.89
2018-03-29T04:51:22.790Z,56.87
2018-03-29T04:51:54.462Z,56.90
2018-03-29T04:52:26.090Z,56.85
2018-03-29T04:52:57.718Z,56.84
2018-03-29T04:53:29.338Z,56.85
2018-03-29T04:54:01.002Z,56.85
2018-03-29T04:54:32.631Z,56.86
2018-03-29T04:55:04.258Z,56.83
2018-03-29T04:55:35.883Z,56.82
2018-03-29T04:56:07.542Z,56.83
2018-03-29T04:56:39.174Z,56.82
2018-03-29T04:57:10.850Z,56.81
2018-03-29T04:57:42.474Z,56.81
2018-03-29T04:58:14.098Z,56.75
2018-03-29T04:58:45.770Z,56.75
2018-03-29T04:59:17.399Z,56.75
2018-03-29T04:59:49.022Z,56.73
2018-03-29T05:00:20.649Z,56.67
2018-03-29T05:00:52.279Z,56.71
2018-03-29T05:01:23.914Z,56.75
2018-03-29T05:01:55.562Z,56.77
2018-03-29T05:02:27.209Z,56.76
2018-03-29T05:02:58.829Z,56.76
2018-03-29T05:03:30.498Z,56.73
2018-03-29T05:04:02.123Z,56.72
2018-03-29T05:04:33.750Z,56.71
2018-03-29T05:05:05.426Z,56.71
2018-03-29T05:05:37.054Z,56.71
2018-03-29T05:06:08.684Z,56.67
2018-03-29T05:06:40.306Z,56.66
2018-03-29T05:07:11.935Z,56.67
2018-03-29T05:07:43.562Z,56.67
2018-03-29T05:08:15.186Z,56.64
2018-03-29T05:08:46.809Z,56.64
2018-03-29T05:09:18.434Z,56.64
2018-03-29T05:09:50.061Z,56.59
2018-03-29T05:10:21.743Z,56.68
2018-03-29T05:10:53.374Z,56.67
2018-03-29T05:11:25.007Z,56.61
2018-03-29T05:11:56.633Z,56.64
2018-03-29T05:12:28.258Z,56.63
2018-03-29T05:12:59.887Z,56.63
2018-03-29T05:13:31.514Z,56.59
2018-03-29T05:14:03.137Z,56.57
2018-03-29T05:14:34.761Z,56.50
2018-03-29T05:15:06.388Z,56.50
2018-03-29T05:15:38.054Z,56.48
2018-03-29T05:16:09.678Z,56.50
2018-03-29T05:16:41.310Z,56.46
2018-03-29T05:17:12.942Z,56.49
2018-03-29T05:17:44.566Z,56.57
2018-03-29T05:18:16.190Z,56.54
2018-03-29T05:18:47.814Z,56.53
2018-03-29T05:19:19.446Z,56.53
2018-03-29T05:19:51.075Z,56.61
2018-03-29T05:20:22.706Z,56.62
2018-03-29T05:20:54.374Z,56.63
2018-03-29T05:21:26.002Z,56.62
2018-03-29T05:21:57.631Z,56.61
2018-03-29T05:22:29.306Z,56.60
2018-03-29T05:23:00.934Z,56.60
2018-03-29T05:23:32.585Z,56.56
2018-03-29T05:24:04.222Z,56.56
2018-03-29T05:24:35.860Z,56.51
2018-03-29T05:25:07.486Z,56.56
2018-03-29T05:25:39.126Z,56.53
2018-03-29T05:26:10.777Z,56.56
2018-03-29T05:26:42.422Z,56.58
2018-03-29T05:27:19.760Z,56.51
2018-03-29T05:27:54.447Z,56.52
2018-03-29T05:28:26.070Z,56.55
2018-03-29T05:28:57.698Z,56.58
2018-03-29T05:29:29.326Z,56.62
2018-03-29T05:30:00.994Z,56.62
2018-03-29T05:30:32.630Z,56.59
2018-03-29T05:31:04.265Z,56.61
2018-03-29T05:31:35.898Z,56.63
2018-03-29T05:32:07.523Z,56.65
2018-03-29T05:32:39.366Z,56.61
2018-03-29T05:33:10.994Z,56.65
2018-03-29T05:33:42.622Z,56.66
2018-03-29T05:34:14.255Z,56.63
2018-03-29T05:34:45.887Z,56.64
2018-03-29T05:35:17.509Z,56.67
2018-03-29T05:35:49.130Z,56.64
2018-03-29T05:36:20.755Z,56.67
2018-03-29T05:36:52.377Z,56.68
2018-03-29T05:37:24.006Z,56.68
2018-03-29T05:37:55.674Z,56.64
2018-03-29T05:38:27.357Z,56.63
2018-03-29T05:38:59.018Z,56.63
2018-03-29T05:39:30.646Z,56.70
2018-03-29T05:40:02.274Z,56.72
2018-03-29T05:40:33.908Z,56.61
2018-03-29T05:41:05.627Z,56.61
2018-03-29T05:41:37.259Z,56.62
2018-03-29T05:42:18.955Z,56.65
2018-03-29T05:42:50.647Z,56.62
2018-03-29T05:43:22.282Z,56.70
2018-03-29T05:43:53.906Z,56.72
2018-03-29T05:44:25.538Z,56.72
2018-03-29T05:44:57.193Z,56.70
2018-03-29T05:45:28.858Z,56.73
2018-03-29T05:46:00.483Z,56.72
2018-03-29T05:46:32.114Z,56.70
2018-03-29T05:47:03.746Z,56.74
2018-03-29T05:47:35.374Z,56.70
2018-03-29T05:48:07.048Z,56.70
2018-03-29T05:48:38.682Z,56.69
2018-03-29T05:49:10.306Z,56.71
2018-03-29T05:49:41.932Z,56.72
2018-03-29T05:50:13.562Z,56.69
2018-03-29T05:50:45.194Z,56.72
2018-03-29T05:51:16.827Z,56.74
2018-03-29T05:51:48.481Z,56.71
2018-03-29T05:52:20.123Z,56.68
2018-03-29T05:52:51.805Z,56.65
2018-03-29T05:53:23.426Z,56.67
2018-03-29T05:53:55.055Z,56.69
2018-03-29T05:54:26.683Z,56.68
2018-03-29T05:54:58.308Z,56.61
2018-03-29T05:55:29.942Z,56.60
2018-03-29T05:56:01.565Z,56.53
2018-03-29T05:56:33.194Z,56.54
2018-03-29T05:57:04.813Z,56.55
2018-03-29T05:57:36.480Z,56.53
2018-03-29T05:58:08.142Z,56.59
2018-03-29T05:58:39.772Z,56.58
2018-03-29T05:59:11.401Z,56.58
2018-03-29T05:59:43.026Z,56.57
2018-03-29T06:00:14.662Z,56.56
2018-03-29T06:00:46.286Z,56.50
2018-03-29T06:01:17.906Z,56.44
2018-03-29T06:01:49.535Z,56.47
2018-03-29T06:02:21.164Z,56.48
2018-03-29T06:02:52.798Z,56.49
2018-03-29T06:03:24.479Z,56.45
2018-03-29T06:03:56.101Z,56.48
2018-03-29T06:04:27.727Z,56.45
2018-03-29T06:04:59.359Z,56.40
2018-03-29T06:05:30.991Z,56.39
2018-03-29T06:06:02.630Z,56.35
2018-03-29T06:06:34.254Z,56.34
2018-03-29T06:07:05.878Z,56.35
2018-03-29T06:07:37.506Z,56.29
2018-03-29T06:08:09.130Z,56.26
2018-03-29T06:08:40.754Z,56.31
2018-03-29T06:09:12.428Z,56.32
2018-03-29T06:09:44.055Z,56.27
2018-03-29T06:10:15.683Z,56.29
2018-03-29T06:10:47.306Z,56.29
2018-03-29T06:11:18.926Z,56.29
2018-03-29T06:11:50.606Z,56.28
2018-03-29T06:12:22.238Z,56.21
2018-03-29T06:12:53.870Z,56.22
2018-03-29T06:13:25.528Z,56.22
2018-03-29T06:14:03.012Z,56.19
2018-03-29T06:14:40.275Z,56.19
2018-03-29T06:15:15.534Z,56.19
2018-03-29T06:15:47.182Z,56.16
2018-03-29T06:16:18.822Z,56.10
2018-03-29T06:16:50.450Z,56.07
2018-03-29T06:17:25.966Z,56.09
2018-03-29T06:18:00.463Z,56.07
2018-03-29T06:18:32.086Z,56.03
2018-03-29T06:19:10.431Z,56.02
2018-03-29T06:19:42.065Z,56.00
2018-03-29T06:20:13.730Z,55.99
2018-03-29T06:20:45.354Z,55.98
2018-03-29T06:21:16.978Z,55.99
2018-03-29T06:21:48.602Z,55.92
2018-03-29T06:22:20.230Z,55.89
2018-03-29T06:22:51.850Z,55.91
2018-03-29T06:23:23.511Z,55.85
2018-03-29T06:23:55.138Z,55.85
2018-03-29T06:24:26.779Z,55.87
2018-03-29T06:24:58.407Z,55.77
2018-03-29T06:25:30.078Z,55.79
2018-03-29T06:26:01.701Z,55.79
2018-03-29T06:26:33.334Z,55.83
2018-03-29T06:27:04.970Z,55.80
2018-03-29T06:27:36.593Z,55.76
2018-03-29T06:28:08.223Z,55.75
2018-03-29T06:28:39.850Z,55.71
2018-03-29T06:29:11.479Z,55.68
2018-03-29T06:29:43.102Z,55.70
2018-03-29T06:30:15.039Z,55.74
2018-03-29T06:30:46.702Z,55.70
2018-03-29T06:31:18.370Z,55.65
2018-03-29T06:31:49.994Z,55.55
2018-03-29T06:32:21.667Z,55.55
2018-03-29T06:32:53.298Z,55.57
2018-03-29T06:33:24.922Z,55.56
2018-03-29T06:33:56.545Z,55.59
2018-03-29T06:34:28.169Z,55.56
2018-03-29T06:34:59.801Z,55.54
2018-03-29T06:35:31.427Z,55.57
2018-03-29T06:36:03.087Z,55.57
2018-03-29T06:36:34.710Z,55.57
2018-03-29T06:37:06.387Z,55.65
2018-03-29T06:37:38.018Z,55.60
2018-03-29T06:38:09.643Z,55.61
2018-03-29T06:38:41.280Z,55.57
2018-03-29T06:39:12.918Z,55.63
2018-03-29T06:39:44.542Z,55.57
2018-03-29T06:40:16.167Z,55.58
2018-03-29T06:40:47.833Z,55.51
2018-03-29T06:41:19.458Z,55.53
2018-03-29T06:41:51.087Z,55.51
2018-03-29T06:42:22.710Z,55.50
2018-03-29T06:42:54.374Z,55.48
2018-03-29T06:43:26.003Z,55.52
2018-03-29T06:43:57.631Z,55.52
2018-03-29T06:44:29.298Z,55.54
2018-03-29T06:45:00.926Z,55.52
2018-03-29T06:45:32.550Z,55.57
2018-03-29T06:46:04.218Z,55.53
2018-03-29T06:46:35.842Z,55.58
2018-03-29T06:47:07.466Z,55.63
2018-03-29T06:47:39.089Z,55.60
2018-03-29T06:48:10.718Z,55.63